Map

Track Data

SID SEASON NUMBER BASIN SUBBASIN NAME ISO_TIME NATURE LAT LON WMO_WIND WMO_PRES WMO_AGENCY TRACK_TYPE DIST2LAND LANDFALL IFLAG USA_AGENCY USA_ATCF_ID USA_LAT USA_LON USA_RECORD USA_STATUS USA_WIND USA_PRES USA_SSHS USA_R34_NE USA_R34_SE USA_R34_SW USA_R34_NW USA_R50_NE USA_R50_SE USA_R50_SW USA_R50_NW USA_R64_NE USA_R64_SE USA_R64_SW USA_R64_NW USA_POCI USA_ROCI USA_RMW USA_EYE TOKYO_LAT TOKYO_LON TOKYO_GRADE TOKYO_WIND TOKYO_PRES TOKYO_R50_DIR TOKYO_R50_LONG TOKYO_R50_SHORT TOKYO_R30_DIR TOKYO_R30_LONG TOKYO_R30_SHORT TOKYO_LAND CMA_LAT CMA_LON CMA_CAT CMA_WIND CMA_PRES HKO_LAT HKO_LON HKO_CAT HKO_WIND HKO_PRES NEWDELHI_LAT NEWDELHI_LON NEWDELHI_GRADE NEWDELHI_WIND NEWDELHI_PRES NEWDELHI_CI NEWDELHI_DP NEWDELHI_POCI REUNION_LAT REUNION_LON REUNION_TYPE REUNION_WIND REUNION_PRES REUNION_TNUM REUNION_CI REUNION_RMW REUNION_R34_NE REUNION_R34_SE REUNION_R34_SW REUNION_R34_NW REUNION_R50_NE REUNION_R50_SE REUNION_R50_SW REUNION_R50_NW REUNION_R64_NE REUNION_R64_SE REUNION_R64_SW REUNION_R64_NW BOM_LAT BOM_LON BOM_TYPE BOM_WIND BOM_PRES BOM_TNUM BOM_CI BOM_RMW BOM_R34_NE BOM_R34_SE BOM_R34_SW BOM_R34_NW BOM_R50_NE BOM_R50_SE BOM_R50_SW BOM_R50_NW BOM_R64_NE BOM_R64_SE BOM_R64_SW BOM_R64_NW BOM_ROCI BOM_POCI BOM_EYE BOM_POS_METHOD BOM_PRES_METHOD NADI_LAT NADI_LON NADI_CAT NADI_WIND NADI_PRES WELLINGTON_LAT WELLINGTON_LON WELLINGTON_WIND WELLINGTON_PRES DS824_LAT DS824_LON DS824_STAGE DS824_WIND DS824_PRES TD9636_LAT TD9636_LON TD9636_STAGE TD9636_WIND TD9636_PRES TD9635_LAT TD9635_LON TD9635_WIND TD9635_PRES TD9635_ROCI NEUMANN_LAT NEUMANN_LON NEUMANN_CLASS NEUMANN_WIND NEUMANN_PRES MLC_LAT MLC_LON MLC_CLASS MLC_WIND MLC_PRES USA_GUST BOM_GUST BOM_GUST_PER REUNION_GUST REUNION_GUST_PER USA_SEAHGT USA_SEARAD_NE USA_SEARAD_SE USA_SEARAD_SW USA_SEARAD_NW STORM_SPEED STORM_DIR
1902046S15066 1902 12 SI MM NOT_NAMED 1902-02-14 18:00:00 NR -14.8000 66.1000 main 1070 998 __________O___ -1 -14.8000 66.1000 7 15 242
1902046S15066 1902 12 SI MM NOT_NAMED 1902-02-14 21:00:00 NR -15.1569 65.4182 main 982 910 __________P___ -1 -15.1569 65.4182 7 15 242
1902046S15066 1902 12 SI MM NOT_NAMED 1902-02-15 00:00:00 NR -15.4901 64.7679 main 910 839 __________P___ -1 -15.4901 64.7679 7 13 242
1902046S15066 1902 12 SI MM NOT_NAMED 1902-02-15 03:00:00 NR -15.7781 64.1836 main 839 782 __________P___ -1 -15.7781 64.1836 7 11 244
1902046S15066 1902 12 SI MM NOT_NAMED 1902-02-15 06:00:00 NR -16.0000 63.7000 main 782 750 __________O___ -1 -16.0000 63.7000 7 9 246
1902046S15066 1902 12 SI MM NOT_NAMED 1902-02-15 09:00:00 NR -16.1442 63.3385 main 741 718 __________P___ -1 -16.1442 63.3385 7 7 249
1902046S15066 1902 12 SI MM NOT_NAMED 1902-02-15 12:00:00 NR -16.2361 63.0661 main 718 686 __________P___ -1 -16.2361 63.0661 7 5 251
1902046S15066 1902 12 SI MM NOT_NAMED 1902-02-15 15:00:00 NR -16.3101 62.8356 main 686 662 __________P___ -1 -16.3101 62.8356 7 5 250
1902046S15066 1902 12 SI MM NOT_NAMED 1902-02-15 18:00:00 NR -16.4000 62.6000 main 662 630 __________O___ -1 -16.4000 62.6000 7 6 246
1902046S15066 1902 12 SI MM NOT_NAMED 1902-02-15 21:00:00 NR -16.5453 62.2853 main 630 592 __________P___ -1 -16.5453 62.2853 7 7 243
1902046S15066 1902 12 SI MM NOT_NAMED 1902-02-16 00:00:00 NR -16.7125 61.9574 main 592 545 __________P___ -1 -16.7125 61.9574 7 7 241
1902046S15066 1902 12 SI MM NOT_NAMED 1902-02-16 03:00:00 NR -16.8984 61.6258 main 545 506 __________P___ -1 -16.8984 61.6258 7 7 238
1902046S15066 1902 12 SI MM NOT_NAMED 1902-02-16 06:00:00 NR -17.1000 61.3000 main 506 467 __________O___ -1 -17.1000 61.3000 7 7 238
1902046S15066 1902 12 SI MM NOT_NAMED 1902-02-16 09:00:00 NR -17.2904 60.9643 main 467 429 __________P___ -1 -17.2904 60.9643 7 7 238
1902046S15066 1902 12 SI MM NOT_NAMED 1902-02-16 12:00:00 NR -17.4976 60.6400 main 421 390 __________P___ -1 -17.4976 60.6400 7 7 233
1902046S15066 1902 12 SI MM NOT_NAMED 1902-02-16 15:00:00 NR -17.7311 60.3456 main 383 344 __________P___ -1 -17.7311 60.3456 7 7 226
1902046S15066 1902 12 SI MM NOT_NAMED 1902-02-16 18:00:00 NR -18.0000 60.1000 main 344 298 __________O___ -1 -18.0000 60.1000 7 8 225
1902046S15066 1902 12 SI MM NOT_NAMED 1902-02-16 21:00:00 NR -18.2725 59.7851 main 298 252 __________P___ -1 -18.2725 59.7851 7 8 222
1902046S15066 1902 12 SI MM NOT_NAMED 1902-02-17 00:00:00 NR -18.5856 59.5396 main 252 223 __________P___ -1 -18.5856 59.5396 7 8 205
1902046S15066 1902 12 SI MM NOT_NAMED 1902-02-17 03:00:00 NR -18.9560 59.4490 main 216 208 __________P___ -1 -18.9560 59.4490 7 8 176
1902046S15066 1902 12 SI MM NOT_NAMED 1902-02-17 06:00:00 NR -19.4000 59.6000 main 213 208 __________O___ -1 -19.4000 59.6000 7 12 150
1902046S15066 1902 12 SI MM NOT_NAMED 1902-02-17 09:00:00 NR -19.9610 60.0550 main 242 242 __________P___ -1 -19.9610 60.0550 7 16 137
1902046S15066 1902 12 SI MM NOT_NAMED 1902-02-17 12:00:00 NR -20.5855 60.7588 main 314 314 __________P___ -1 -20.5855 60.7588 7 19 130
1902046S15066 1902 12 SI MM NOT_NAMED 1902-02-17 15:00:00 NR -21.2170 61.6337 main 407 407 __________P___ -1 -21.2170 61.6337 7 21 125
1902046S15066 1902 12 SI MM NOT_NAMED 1902-02-17 18:00:00 NR -21.8000 62.6000 main 525 525 __________O___ -1 -21.8000 62.6000 7 21 121
1902046S15066 1902 12 SI MM NOT_NAMED 1902-02-17 21:00:00 NR -22.2934 63.5893 main 640 640 __________P___ -1 -22.2934 63.5893 7 21 116
1902046S15066 1902 12 SI MM NOT_NAMED 1902-02-18 00:00:00 NR -22.7086 64.5866 main 752 752 __________P___ -1 -22.7086 64.5866 7 20 113
1902046S15066 1902 12 SI MM NOT_NAMED 1902-02-18 03:00:00 NR -23.0695 65.5906 main 864 864 __________P___ -1 -23.0695 65.5906 7 20 110
1902046S15066 1902 12 SI MM NOT_NAMED 1902-02-18 06:00:00 NR -23.4000 66.6000 main 971 __________O___ -1 -23.4000 66.6000 7 20 110

About IBTrACS Database

This database is a web-friendly format of International Best Track Archive for Climate Stewardship (IBTrACS), a global best track data archive curated by NOAA dating back to 1842.

Updated: 2021-10-21